Time;durP1;ratioP1;P1;durP2;ratioP2;P2;SDS_P1;SDS_P2;PMS_P1;PMS_P2;Temp;Humidity;BMP_temperature;BMP_pressure;BME280_temperature;BME280_humidity;BME280_pressure;Samples;Min_cycle;Max_cycle;Signal;HPM_P1;HPM_P2
2021/12/19 00:00:51;;;;;;;;;;;;;;;;;;2066323;28;1958;-78
2021/12/19 00:02:07;;;;;;;;;;;;;;;;;;2059162;28;837;-78
2021/12/19 00:03:31;;;;;;;;;;;;;;;;;;2058596;28;1978;-78
2021/12/19 00:04:37;;;;;;;;;;;;;;;;;;2058776;28;1141;-77
2021/12/19 00:08:28;;;;;;;;;;;;;;;;;;2044310;29;1702;-78
2021/12/19 00:09:30;;;;;;;;;;;;;;;;;;2044049;29;1549;-79
2021/12/19 00:10:31;;;;;;;;;;;;;;;;;;2042986;29;1234;-78
2021/12/19 00:11:33;;;;;;;;;;;;;;;;;;2048441;29;1982;-77
2021/12/19 00:12:34;;;;;;;;;;;;;;;;;;2050775;28;1498;-78
2021/12/19 00:13:36;;;;;;;;;;;;;;;;;;2058594;28;1272;-77
2021/12/19 00:14:38;;;;;;;;;;;;;;;;;;2067423;28;848;-78
2021/12/19 00:15:39;;;;;;;;;;;;;;;;;;2066774;28;1699;-78
2021/12/19 00:16:40;;;;;;;;;;;;;;;;;;2058436;28;1361;-78
2021/12/19 00:17:41;;;;;;;;;;;;;;;;;;2058851;28;875;-77
2021/12/19 00:18:46;;;;;;;;;;;;;;;;;;2066588;28;1217;-79
2021/12/19 00:19:46;;;;;;;;;;;;;;;;;;2064081;28;1418;-78
2021/12/19 00:20:50;;;;;;;;;;;;;;;;;;2058736;28;1869;-78
2021/12/19 00:21:50;;;;;;;;;;;;;;;;;;2058106;28;1589;-77
2021/12/19 00:22:52;;;;;;;;;;;;;;;;;;2059983;28;1851;-78
2021/12/19 00:23:54;;;;;;;;;;;;;;;;;;2066561;28;1907;-77
2021/12/19 00:24:55;;;;;;;;;;;;;;;;;;2058517;28;1640;-78
2021/12/19 00:25:56;;;;;;;;;;;;;;;;;;2058127;28;928;-78
2021/12/19 00:26:58;;;;;;;;;;;;;;;;;;2066124;28;978;-81
2021/12/19 00:27:59;;;;;;;;;;;;;;;;;;2066654;28;1630;-78
2021/12/19 00:29:01;;;;;;;;;;;;;;;;;;2066547;28;757;-77
2021/12/19 00:30:02;;;;;;;;;;;;;;;;;;2058440;28;1457;-78
2021/12/19 00:31:04;;;;;;;;;;;;;;;;;;2051824;28;1772;-77
2021/12/19 00:32:05;;;;;;;;;;;;;;;;;;2066706;28;859;-79
2021/12/19 00:33:06;;;;;;;;;;;;;;;;;;2066492;28;1312;-79
2021/12/19 00:34:08;;;;;;;;;;;;;;;;;;2058553;28;1262;-78
2021/12/19 00:35:09;;;;;;;;;;;;;;;;;;2057935;28;1802;-77
2021/12/19 00:36:13;;;;;;;;;;;;;;;;;;2058127;28;1938;-77
2021/12/19 00:37:13;;;;;;;;;;;;;;;;;;2066263;28;1630;-78
2021/12/19 00:38:16;;;;;;;;;;;;;;;;;;2058516;28;1297;-78
2021/12/19 00:39:17;;;;;;;;;;;;;;;;;;2049762;28;1727;-79
2021/12/19 00:40:19;;;;;;;;;;;;;;;;;;2058443;28;1229;-78
2021/12/19 00:41:20;;;;;;;;;;;;;;;;;;2062338;28;2082;-78
2021/12/19 00:42:28;;;;;;;;;;;;;;;;;;2066706;28;1762;-78
2021/12/19 00:43:35;;;;;;;;;;;;;;;;;;2058084;28;1902;-78
2021/12/19 00:44:38;;;;;;;;;;;;;;;;;;2059439;28;890;-78
2021/12/19 00:45:40;;;;;;;;;;;;;;;;;;2066180;28;1502;-78
2021/12/19 00:46:47;;;;;;;;;;;;;;;;;;2058274;28;1553;-78
2021/12/19 00:47:48;;;;;;;;;;;;;;;;;;2051074;28;1464;-79
2021/12/19 00:48:52;;;;;;;;;;;;;;;;;;2058310;28;1822;-79
2021/12/19 00:49:54;;;;;;;;;;;;;;;;;;2050429;28;1693;-79
2021/12/19 00:50:55;;;;;;;;;;;;;;;;;;2058565;28;2073;-78
2021/12/19 00:51:58;;;;;;;;;;;;;;;;;;2066515;28;911;-79
2021/12/19 00:52:59;;;;;;;;;;;;;;;;;;2058258;28;1634;-78
2021/12/19 00:54:00;;;;;;;;;;;;;;;;;;2058517;28;995;-78
2021/12/19 00:55:01;;;;;;;;;;;;;;;;;;2057940;28;1815;-79
2021/12/19 00:56:03;;;;;;;;;;;;;;;;;;2049690;28;1994;-77
2021/12/19 00:57:04;;;;;;;;;;;;;;;;;;2058261;28;932;-77
2021/12/19 00:58:05;;;;;;;;;;;;;;;;;;2058828;28;899;-78
2021/12/19 00:59:06;;;;;;;;;;;;;;;;;;2058161;28;1694;-78
2021/12/19 01:00:09;;;;;;;;;;;;;;;;;;2058469;28;1515;-77
2021/12/19 01:01:11;;;;;;;;;;;;;;;;;;2050085;29;1732;-77
2021/12/19 01:02:13;;;;;;;;;;;;;;;;;;2050359;28;1416;-77
2021/12/19 01:03:14;;;;;;;;;;;;;;;;;;2058195;28;1035;-77
2021/12/19 01:04:16;;;;;;;;;;;;;;;;;;2058253;28;1910;-77
2021/12/19 01:05:17;;;;;;;;;;;;;;;;;;2056447;28;1764;-78
2021/12/19 01:06:19;;;;;;;;;;;;;;;;;;2054366;28;2017;-78
2021/12/19 01:07:22;;;;;;;;;;;;;;;;;;2057877;28;1406;-78
2021/12/19 01:08:23;;;;;;;;;;;;;;;;;;2052565;28;1255;-77
2021/12/19 01:09:24;;;;;;;;;;;;;;;;;;2050178;29;1529;-77
2021/12/19 01:10:25;;;;;;;;;;;;;;;;;;2058122;28;1690;-78
2021/12/19 01:11:27;;;;;;;;;;;;;;;;;;2058268;28;1121;-77
2021/12/19 01:12:28;;;;;;;;;;;;;;;;;;2058672;28;904;-78
2021/12/19 01:13:29;;;;;;;;;;;;;;;;;;2049961;29;1574;-78
2021/12/19 01:14:30;;;;;;;;;;;;;;;;;;2050046;28;1544;-78
2021/12/19 01:15:32;;;;;;;;;;;;;;;;;;2058224;28;1782;-78
2021/12/19 01:16:34;;;;;;;;;;;;;;;;;;2061484;28;1511;-78
2021/12/19 01:17:34;;;;;;;;;;;;;;;;;;2058207;28;1428;-78
2021/12/19 01:18:36;;;;;;;;;;;;;;;;;;2058404;28;1521;-78
2021/12/19 01:19:38;;;;;;;;;;;;;;;;;;2058154;28;1296;-78
2021/12/19 01:20:39;;;;;;;;;;;;;;;;;;2058363;28;1275;-79
2021/12/19 01:21:41;;;;;;;;;;;;;;;;;;2043200;29;2173;-77
2021/12/19 01:22:43;;;;;;;;;;;;;;;;;;2049900;29;1096;-78
2021/12/19 01:23:45;;;;;;;;;;;;;;;;;;2049831;29;1911;-77
2021/12/19 01:24:46;;;;;;;;;;;;;;;;;;2050334;29;836;-78
2021/12/19 01:25:47;;;;;;;;;;;;;;;;;;2042025;29;1347;-78
2021/12/19 01:26:49;;;;;;;;;;;;;;;;;;2042455;29;1838;-78
2021/12/19 01:27:50;;;;;;;;;;;;;;;;;;2056528;28;1756;-78
2021/12/19 01:28:51;;;;;;;;;;;;;;;;;;2058708;28;1814;-78
2021/12/19 01:29:52;;;;;;;;;;;;;;;;;;2050019;29;1538;-78
2021/12/19 01:30:54;;;;;;;;;;;;;;;;;;2049423;28;1946;-78
2021/12/19 01:31:54;;;;;;;;;;;;;;;;;;2049785;28;1265;-78
2021/12/19 01:32:56;;;;;;;;;;;;;;;;;;2050294;28;1336;-78
2021/12/19 01:33:56;;;;;;;;;;;;;;;;;;2049782;28;1599;-78
2021/12/19 01:34:58;;;;;;;;;;;;;;;;;;2050148;29;872;-78
2021/12/19 01:35:59;;;;;;;;;;;;;;;;;;2049779;28;1669;-78
2021/12/19 01:37:00;;;;;;;;;;;;;;;;;;2049912;29;1286;-78
2021/12/19 01:38:02;;;;;;;;;;;;;;;;;;2042089;29;1653;-79
2021/12/19 01:39:04;;;;;;;;;;;;;;;;;;2042003;29;1645;-77
2021/12/19 01:40:07;;;;;;;;;;;;;;;;;;2049872;29;1665;-78
2021/12/19 01:41:08;;;;;;;;;;;;;;;;;;2050080;29;824;-78
2021/12/19 01:42:10;;;;;;;;;;;;;;;;;;2051007;29;868;-79
2021/12/19 01:43:12;;;;;;;;;;;;;;;;;;2049873;29;1520;-78
2021/12/19 01:44:12;;;;;;;;;;;;;;;;;;2041877;29;1965;-78
2021/12/19 01:45:16;;;;;;;;;;;;;;;;;;2042083;29;1686;-77
2021/12/19 01:46:17;;;;;;;;;;;;;;;;;;2045964;28;2180;-77
2021/12/19 01:47:21;;;;;;;;;;;;;;;;;;2049418;29;1771;-78
2021/12/19 01:48:22;;;;;;;;;;;;;;;;;;2050069;28;1244;-78
2021/12/19 01:49:23;;;;;;;;;;;;;;;;;;2057803;28;813;-78
2021/12/19 01:50:25;;;;;;;;;;;;;;;;;;2049752;28;1593;-78
2021/12/19 01:51:26;;;;;;;;;;;;;;;;;;2045380;28;1991;-78
2021/12/19 01:52:28;;;;;;;;;;;;;;;;;;2057978;28;930;-78
2021/12/19 01:53:31;;;;;;;;;;;;;;;;;;2065883;28;1434;-78
2021/12/19 01:54:32;;;;;;;;;;;;;;;;;;2066212;28;797;-77
2021/12/19 01:55:34;;;;;;;;;;;;;;;;;;2060040;28;1894;-78
2021/12/19 01:56:34;;;;;;;;;;;;;;;;;;2049787;29;1375;-79
2021/12/19 01:57:36;;;;;;;;;;;;;;;;;;2042032;29;1317;-78
2021/12/19 01:58:38;;;;;;;;;;;;;;;;;;2049820;28;1259;-78
2021/12/19 01:59:39;;;;;;;;;;;;;;;;;;2058437;28;931;-77
2021/12/19 02:00:42;;;;;;;;;;;;;;;;;;2049799;29;1419;-78
2021/12/19 02:01:43;;;;;;;;;;;;;;;;;;2049650;28;888;-77
2021/12/19 02:02:45;;;;;;;;;;;;;;;;;;2050180;29;1241;-78
2021/12/19 02:03:46;;;;;;;;;;;;;;;;;;2049685;28;1911;-78
2021/12/19 02:04:47;;;;;;;;;;;;;;;;;;2050042;29;1660;-78
2021/12/19 02:05:49;;;;;;;;;;;;;;;;;;2049697;28;1820;-79
2021/12/19 02:06:50;;;;;;;;;;;;;;;;;;2050039;28;1318;-78
2021/12/19 02:07:52;;;;;;;;;;;;;;;;;;2050014;29;754;-78
2021/12/19 02:08:59;;;;;;;;;;;;;;;;;;2041976;29;1560;-77
2021/12/19 02:09:59;;;;;;;;;;;;;;;;;;2042741;29;1523;-78
2021/12/19 02:11:01;;;;;;;;;;;;;;;;;;2050801;28;1626;-78
2021/12/19 02:12:03;;;;;;;;;;;;;;;;;;2058185;28;817;-77
2021/12/19 02:13:06;;;;;;;;;;;;;;;;;;2057638;28;1574;-78
2021/12/19 02:14:07;;;;;;;;;;;;;;;;;;2049992;29;1558;-77
2021/12/19 02:15:10;;;;;;;;;;;;;;;;;;2041513;29;1735;-77
2021/12/19 02:16:12;;;;;;;;;;;;;;;;;;2047618;28;2069;-78
2021/12/19 02:17:12;;;;;;;;;;;;;;;;;;2042120;29;1252;-77
2021/12/19 02:18:15;;;;;;;;;;;;;;;;;;2042221;29;1802;-78
2021/12/19 02:19:16;;;;;;;;;;;;;;;;;;2042176;29;1663;-78
2021/12/19 02:20:20;;;;;;;;;;;;;;;;;;2041783;29;1346;-78
2021/12/19 02:21:21;;;;;;;;;;;;;;;;;;2042094;29;2053;-78
2021/12/19 02:22:22;;;;;;;;;;;;;;;;;;2054393;28;1466;-78
2021/12/19 02:23:24;;;;;;;;;;;;;;;;;;2061780;28;1784;-77
2021/12/19 02:24:26;;;;;;;;;;;;;;;;;;2065773;28;1969;-77
2021/12/19 02:25:26;;;;;;;;;;;;;;;;;;2065827;28;789;-77
2021/12/19 02:26:28;;;;;;;;;;;;;;;;;;2057836;28;1925;-77
2021/12/19 02:27:29;;;;;;;;;;;;;;;;;;2057886;28;777;-78
2021/12/19 02:28:30;;;;;;;;;;;;;;;;;;2065887;28;1428;-78
2021/12/19 02:29:31;;;;;;;;;;;;;;;;;;2057600;28;1649;-78
2021/12/19 02:30:33;;;;;;;;;;;;;;;;;;2057874;28;1359;-79
2021/12/19 02:31:34;;;;;;;;;;;;;;;;;;2061531;28;1680;-78
2021/12/19 02:32:36;;;;;;;;;;;;;;;;;;2049654;28;1796;-78
2021/12/19 02:33:41;;;;;;;;;;;;;;;;;;2057475;28;1347;-77
2021/12/19 02:34:44;;;;;;;;;;;;;;;;;;2050690;28;948;-77
2021/12/19 02:35:54;;;;;;;;;;;;;;;;;;2049542;29;1666;-77
2021/12/19 02:37:01;;;;;;;;;;;;;;;;;;2051018;28;1631;-79
2021/12/19 02:38:33;;;;;;;;;;;;;;;;;;2058128;28;1262;-77
2021/12/19 02:39:54;;;;;;;;;;;;;;;;;;2049412;29;1243;-78
2021/12/19 02:49:06;;;;;;;;;;;;;;;;;;2065834;28;803;-78
2021/12/19 02:50:09;;;;;;;;;;;;;;;;;;2057846;28;1724;-77
2021/12/19 02:51:12;;;;;;;;;;;;;;;;;;2050036;28;1268;-77
2021/12/19 02:52:13;;;;;;;;;;;;;;;;;;2057999;28;1501;-78
2021/12/19 02:53:17;;;;;;;;;;;;;;;;;;2057567;28;1727;-79
2021/12/19 02:54:17;;;;;;;;;;;;;;;;;;2058094;28;1784;-78
2021/12/19 02:55:19;;;;;;;;;;;;;;;;;;2057638;28;1665;-78
2021/12/19 02:56:20;;;;;;;;;;;;;;;;;;2049555;28;1605;-78
2021/12/19 02:57:22;;;;;;;;;;;;;;;;;;2049556;28;1627;-77
2021/12/19 02:58:22;;;;;;;;;;;;;;;;;;2057917;28;1747;-78
2021/12/19 02:59:24;;;;;;;;;;;;;;;;;;2057608;28;1531;-78
2021/12/19 03:00:26;;;;;;;;;;;;;;;;;;2057825;28;1553;-78
2021/12/19 03:01:28;;;;;;;;;;;;;;;;;;2065393;28;1850;-78
2021/12/19 03:02:28;;;;;;;;;;;;;;;;;;2066418;28;1644;-78
2021/12/19 03:03:30;;;;;;;;;;;;;;;;;;2058813;28;1825;-78
2021/12/19 03:04:30;;;;;;;;;;;;;;;;;;2059394;28;1914;-78
2021/12/19 03:05:33;;;;;;;;;;;;;;;;;;2066921;28;1408;-78
2021/12/19 03:06:35;;;;;;;;;;;;;;;;;;2066878;28;1987;-78
2021/12/19 03:07:41;;;;;;;;;;;;;;;;;;2059029;28;1959;-78
2021/12/19 03:08:46;;;;;;;;;;;;;;;;;;2060201;28;939;-78
2021/12/19 03:10:01;;;;;;;;;;;;;;;;;;2059020;28;1661;-78
2021/12/19 03:12:30;;;;;;;;;;;;;;;;;;2046688;28;1729;-78
2021/12/19 03:17:55;;;;;;;;;;;;;;;;;;2052494;28;1556;-78
2021/12/19 03:18:52;;;;;;;;;;;;;;;;;;2059448;28;978;-77
2021/12/19 03:19:52;;;;;;;;;;;;;;;;;;2051037;29;1219;-78
2021/12/19 03:20:54;;;;;;;;;;;;;;;;;;2051585;28;2028;-78
2021/12/19 03:21:56;;;;;;;;;;;;;;;;;;2050547;29;1272;-78
2021/12/19 03:22:59;;;;;;;;;;;;;;;;;;2051441;29;829;-78
2021/12/19 03:23:59;;;;;;;;;;;;;;;;;;2059780;28;1018;-77
2021/12/19 03:25:01;;;;;;;;;;;;;;;;;;2058834;28;1914;-77
2021/12/19 03:26:02;;;;;;;;;;;;;;;;;;2060095;28;2253;-77
2021/12/19 03:27:03;;;;;;;;;;;;;;;;;;2067188;28;1081;-78
2021/12/19 03:28:05;;;;;;;;;;;;;;;;;;2059037;28;1754;-78
2021/12/19 03:29:07;;;;;;;;;;;;;;;;;;2058958;28;1828;-78
2021/12/19 03:30:09;;;;;;;;;;;;;;;;;;2059095;28;1258;-77
2021/12/19 03:31:10;;;;;;;;;;;;;;;;;;2061387;28;2096;-77
2021/12/19 03:32:11;;;;;;;;;;;;;;;;;;2063877;28;1882;-77
2021/12/19 03:33:13;;;;;;;;;;;;;;;;;;2066908;28;852;-77
2021/12/19 03:34:14;;;;;;;;;;;;;;;;;;2059126;28;1231;-77
2021/12/19 03:35:16;;;;;;;;;;;;;;;;;;2050944;29;1597;-78
2021/12/19 03:36:16;;;;;;;;;;;;;;;;;;2055207;28;1516;-78
2021/12/19 03:37:19;;;;;;;;;;;;;;;;;;2050743;29;1675;-77
2021/12/19 03:38:20;;;;;;;;;;;;;;;;;;2051259;28;1209;-78
2021/12/19 03:39:36;;;;;;;;;;;;;;;;;;2050967;29;1527;-78
2021/12/19 03:40:39;;;;;;;;;;;;;;;;;;2052990;28;1589;-78
2021/12/19 03:41:42;;;;;;;;;;;;;;;;;;2058579;28;1790;-78
2021/12/19 03:42:43;;;;;;;;;;;;;;;;;;2064710;28;1839;-78
2021/12/19 03:43:45;;;;;;;;;;;;;;;;;;2066812;28;1691;-77
2021/12/19 03:44:46;;;;;;;;;;;;;;;;;;2058928;28;1915;-79
2021/12/19 03:45:48;;;;;;;;;;;;;;;;;;2050727;29;1360;-78
2021/12/19 03:46:49;;;;;;;;;;;;;;;;;;2043145;29;1278;-77
2021/12/19 03:47:51;;;;;;;;;;;;;;;;;;2050881;28;875;-78
2021/12/19 03:48:51;;;;;;;;;;;;;;;;;;2051103;29;1632;-78
2021/12/19 03:49:53;;;;;;;;;;;;;;;;;;2054771;28;1363;-79
2021/12/19 03:50:54;;;;;;;;;;;;;;;;;;2066141;28;1864;-78
2021/12/19 03:51:55;;;;;;;;;;;;;;;;;;2058877;28;943;-78
2021/12/19 03:52:57;;;;;;;;;;;;;;;;;;2058916;28;1401;-77
2021/12/19 03:53:59;;;;;;;;;;;;;;;;;;2053095;28;1785;-77
2021/12/19 03:55:00;;;;;;;;;;;;;;;;;;2050764;29;1335;-78
2021/12/19 03:56:01;;;;;;;;;;;;;;;;;;2049496;29;1986;-80
2021/12/19 03:57:02;;;;;;;;;;;;;;;;;;2058688;28;1049;-78
2021/12/19 03:58:04;;;;;;;;;;;;;;;;;;2059003;28;1389;-78
2021/12/19 03:59:04;;;;;;;;;;;;;;;;;;2058697;28;947;-77
2021/12/19 04:00:09;;;;;;;;;;;;;;;;;;2059429;28;757;-78
2021/12/19 04:01:10;;;;;;;;;;;;;;;;;;2062125;28;895;-77
2021/12/19 04:02:12;;;;;;;;;;;;;;;;;;2058559;28;1745;-77
2021/12/19 04:03:18;;;;;;;;;;;;;;;;;;2050249;28;1875;-78
2021/12/19 04:04:19;;;;;;;;;;;;;;;;;;2051515;28;1695;-77
2021/12/19 04:05:20;;;;;;;;;;;;;;;;;;2058417;28;1976;-77
2021/12/19 04:06:22;;;;;;;;;;;;;;;;;;2058716;28;1491;-77
2021/12/19 04:07:24;;;;;;;;;;;;;;;;;;2058429;28;1316;-77
2021/12/19 04:08:27;;;;;;;;;;;;;;;;;;2058975;28;898;-77
2021/12/19 04:09:27;;;;;;;;;;;;;;;;;;2058706;28;1231;-77
2021/12/19 04:10:29;;;;;;;;;;;;;;;;;;2058821;28;1569;-78
2021/12/19 04:11:31;;;;;;;;;;;;;;;;;;2063490;28;1464;-78
2021/12/19 04:12:31;;;;;;;;;;;;;;;;;;2066647;28;1523;-79
2021/12/19 04:13:33;;;;;;;;;;;;;;;;;;2066431;28;1048;-78
2021/12/19 04:14:34;;;;;;;;;;;;;;;;;;2066972;28;859;-78
2021/12/19 04:15:35;;;;;;;;;;;;;;;;;;2066626;28;1512;-77
2021/12/19 04:16:36;;;;;;;;;;;;;;;;;;2058623;28;1767;-77
2021/12/19 04:17:38;;;;;;;;;;;;;;;;;;2058610;28;734;-77
2021/12/19 04:18:38;;;;;;;;;;;;;;;;;;2066934;28;1417;-78
2021/12/19 04:19:40;;;;;;;;;;;;;;;;;;2066683;28;907;-78
2021/12/19 04:20:41;;;;;;;;;;;;;;;;;;2058839;28;1616;-77
2021/12/19 04:21:42;;;;;;;;;;;;;;;;;;2065048;28;2009;-77
2021/12/19 04:22:43;;;;;;;;;;;;;;;;;;2075034;28;1367;-77
2021/12/19 04:23:46;;;;;;;;;;;;;;;;;;2066465;28;1531;-77
2021/12/19 04:24:47;;;;;;;;;;;;;;;;;;2060570;28;1946;-77
2021/12/19 04:25:50;;;;;;;;;;;;;;;;;;2066463;28;1292;-77
2021/12/19 04:26:50;;;;;;;;;;;;;;;;;;2058730;28;1510;-77
2021/12/19 04:27:52;;;;;;;;;;;;;;;;;;2058321;28;1548;-78
2021/12/19 04:28:53;;;;;;;;;;;;;;;;;;2058614;28;1741;-77
2021/12/19 04:29:54;;;;;;;;;;;;;;;;;;2050333;29;1492;-77
2021/12/19 04:30:55;;;;;;;;;;;;;;;;;;2057865;28;2052;-77
2021/12/19 04:31:57;;;;;;;;;;;;;;;;;;2050400;29;1346;-77
2021/12/19 04:33:01;;;;;;;;;;;;;;;;;;2050788;28;848;-79
2021/12/19 04:34:05;;;;;;;;;;;;;;;;;;2059126;28;1084;-78
2021/12/19 04:35:06;;;;;;;;;;;;;;;;;;2058588;28;1583;-78
2021/12/19 04:36:09;;;;;;;;;;;;;;;;;;2058298;28;1593;-79
2021/12/19 04:37:28;;;;;;;;;;;;;;;;;;2058696;28;848;-77
2021/12/19 04:39:56;;;;;;;;;;;;;;;;;;2054798;28;1799;-78
2021/12/19 04:41:34;;;;;;;;;;;;;;;;;;2058082;28;2008;-77
2021/12/19 04:51:07;;;;;;;;;;;;;;;;;;2052654;28;1076;-79
2021/12/19 04:53:36;;;;;;;;;;;;;;;;;;2058242;28;1703;-78
2021/12/19 04:54:53;;;;;;;;;;;;;;;;;;2058596;28;1637;-77
2021/12/19 04:57:25;;;;;;;;;;;;;;;;;;2058330;28;1672;-78
2021/12/19 04:59:54;;;;;;;;;;;;;;;;;;2050517;29;875;-77
2021/12/19 05:01:07;;;;;;;;;;;;;;;;;;2060915;28;1782;-78
2021/12/19 05:02:15;;;;;;;;;;;;;;;;;;2050881;28;1587;-77
2021/12/19 05:03:28;;;;;;;;;;;;;;;;;;2050312;29;1914;-78
2021/12/19 05:06:03;;;;;;;;;;;;;;;;;;2053228;28;1219;-77
2021/12/19 05:15:00;;;;;;;;;;;;;;;;;;2066289;28;1613;-79
2021/12/19 05:16:01;;;;;;;;;;;;;;;;;;2056514;28;2084;-78
2021/12/19 05:17:06;;;;;;;;;;;;;;;;;;2050063;28;1738;-81
2021/12/19 05:18:09;;;;;;;;;;;;;;;;;;2058356;28;1448;-78
2021/12/19 05:19:21;;;;;;;;;;;;;;;;;;2050057;29;1564;-78
2021/12/19 05:20:26;;;;;;;;;;;;;;;;;;2043817;29;1676;-78
2021/12/19 05:21:29;;;;;;;;;;;;;;;;;;2042238;29;1271;-78
2021/12/19 05:22:32;;;;;;;;;;;;;;;;;;2050199;28;1214;-78
2021/12/19 05:23:50;;;;;;;;;;;;;;;;;;2058111;28;1696;-79
2021/12/19 05:25:00;;;;;;;;;;;;;;;;;;2057812;28;1695;-78
2021/12/19 05:26:03;;;;;;;;;;;;;;;;;;2059858;28;1901;-78
2021/12/19 05:27:04;;;;;;;;;;;;;;;;;;2057916;28;1745;-78
2021/12/19 05:28:06;;;;;;;;;;;;;;;;;;2050223;28;1241;-78
2021/12/19 05:29:06;;;;;;;;;;;;;;;;;;2050548;28;1008;-78
2021/12/19 05:30:08;;;;;;;;;;;;;;;;;;2066128;28;1548;-78
2021/12/19 05:31:09;;;;;;;;;;;;;;;;;;2055270;28;1625;-79
2021/12/19 05:32:11;;;;;;;;;;;;;;;;;;2066220;28;796;-79
2021/12/19 05:33:12;;;;;;;;;;;;;;;;;;2057998;28;1647;-78
2021/12/19 05:34:14;;;;;;;;;;;;;;;;;;2052396;28;1481;-77
2021/12/19 05:35:20;;;;;;;;;;;;;;;;;;2049870;29;1934;-79
2021/12/19 05:45:48;;;;;;;;;;;;;;;;;;2039830;29;1628;-78
2021/12/19 05:46:48;;;;;;;;;;;;;;;;;;2040182;29;1533;-78
2021/12/19 05:47:51;;;;;;;;;;;;;;;;;;2049823;29;1504;-78
2021/12/19 05:48:53;;;;;;;;;;;;;;;;;;2050381;29;1326;-78
2021/12/19 05:49:54;;;;;;;;;;;;;;;;;;2049899;29;1669;-78
2021/12/19 05:50:56;;;;;;;;;;;;;;;;;;2048338;28;1985;-78
2021/12/19 05:51:57;;;;;;;;;;;;;;;;;;2056506;28;1761;-78
2021/12/19 05:52:59;;;;;;;;;;;;;;;;;;2064711;28;2082;-79
2021/12/19 05:53:59;;;;;;;;;;;;;;;;;;2065885;28;1243;-77
2021/12/19 05:55:01;;;;;;;;;;;;;;;;;;2074055;28;1977;-78
2021/12/19 05:56:03;;;;;;;;;;;;;;;;;;2064607;28;1798;-77
2021/12/19 05:57:06;;;;;;;;;;;;;;;;;;2057668;28;1209;-77
2021/12/19 05:58:07;;;;;;;;;;;;;;;;;;2057688;28;1638;-77
2021/12/19 05:59:09;;;;;;;;;;;;;;;;;;2057682;28;998;-77
2021/12/19 06:00:12;;;;;;;;;;;;;;;;;;2057883;28;1182;-78
2021/12/19 06:01:14;;;;;;;;;;;;;;;;;;2060703;28;2253;-77
2021/12/19 06:02:15;;;;;;;;;;;;;;;;;;2074016;28;931;-77
2021/12/19 06:03:16;;;;;;;;;;;;;;;;;;2065688;28;1221;-77
2021/12/19 06:04:17;;;;;;;;;;;;;;;;;;2057615;28;1874;-78
2021/12/19 06:05:19;;;;;;;;;;;;;;;;;;2066360;28;1238;-78
2021/12/19 06:06:19;;;;;;;;;;;;;;;;;;2064085;28;1272;-77
2021/12/19 06:07:21;;;;;;;;;;;;;;;;;;2049799;29;1300;-77
2021/12/19 06:08:22;;;;;;;;;;;;;;;;;;2049817;29;1875;-77
2021/12/19 06:09:23;;;;;;;;;;;;;;;;;;2057671;28;1511;-78
2021/12/19 06:10:28;;;;;;;;;;;;;;;;;;2057776;28;1254;-78
2021/12/19 06:11:28;;;;;;;;;;;;;;;;;;2060271;28;1689;-78
2021/12/19 06:12:32;;;;;;;;;;;;;;;;;;2061056;28;1264;-77
2021/12/19 06:13:33;;;;;;;;;;;;;;;;;;2057738;28;1217;-79
2021/12/19 06:14:35;;;;;;;;;;;;;;;;;;2057517;28;1545;-78
2021/12/19 06:15:36;;;;;;;;;;;;;;;;;;2065697;28;1981;-78
2021/12/19 06:16:37;;;;;;;;;;;;;;;;;;2059143;28;1885;-78
2021/12/19 06:17:39;;;;;;;;;;;;;;;;;;2057691;28;940;-77
2021/12/19 06:18:40;;;;;;;;;;;;;;;;;;2049948;28;1576;-77
2021/12/19 06:19:41;;;;;;;;;;;;;;;;;;2049999;29;857;-78
2021/12/19 06:20:42;;;;;;;;;;;;;;;;;;2057842;28;1255;-78
2021/12/19 06:21:44;;;;;;;;;;;;;;;;;;2064722;28;1260;-78
2021/12/19 06:22:45;;;;;;;;;;;;;;;;;;2057779;28;1585;-77
2021/12/19 06:23:46;;;;;;;;;;;;;;;;;;2057779;28;895;-77
2021/12/19 06:24:48;;;;;;;;;;;;;;;;;;2065818;28;1363;-79
2021/12/19 06:25:48;;;;;;;;;;;;;;;;;;2065322;28;1319;-77
2021/12/19 06:26:50;;;;;;;;;;;;;;;;;;2066328;28;923;-76
2021/12/19 06:27:53;;;;;;;;;;;;;;;;;;2065295;28;1553;-76
2021/12/19 06:28:54;;;;;;;;;;;;;;;;;;2057703;28;1652;-76
2021/12/19 06:29:55;;;;;;;;;;;;;;;;;;2049353;29;1848;-76
2021/12/19 06:30:56;;;;;;;;;;;;;;;;;;2050200;28;1898;-77
2021/12/19 06:31:58;;;;;;;;;;;;;;;;;;2057808;28;745;-76
2021/12/19 06:32:59;;;;;;;;;;;;;;;;;;2049498;29;1688;-77
2021/12/19 06:34:00;;;;;;;;;;;;;;;;;;2053636;28;1414;-77
2021/12/19 06:35:06;;;;;;;;;;;;;;;;;;2065486;28;1876;-77
2021/12/19 06:36:09;;;;;;;;;;;;;;;;;;2065270;28;1910;-76
2021/12/19 06:37:11;;;;;;;;;;;;;;;;;;2066346;28;909;-76
2021/12/19 06:38:13;;;;;;;;;;;;;;;;;;2067947;28;1036;-76
2021/12/19 06:39:14;;;;;;;;;;;;;;;;;;2068099;28;848;-76
2021/12/19 06:40:16;;;;;;;;;;;;;;;;;;2067127;28;1748;-77
2021/12/19 06:41:18;;;;;;;;;;;;;;;;;;2062295;28;1779;-77
2021/12/19 06:42:18;;;;;;;;;;;;;;;;;;2067491;28;891;-76
2021/12/19 06:43:21;;;;;;;;;;;;;;;;;;2067248;28;1745;-76
2021/12/19 06:44:23;;;;;;;;;;;;;;;;;;2067404;28;891;-76
2021/12/19 06:45:23;;;;;;;;;;;;;;;;;;2067316;28;1559;-77
2021/12/19 06:46:25;;;;;;;;;;;;;;;;;;2066372;28;2021;-76
2021/12/19 06:47:25;;;;;;;;;;;;;;;;;;2067266;28;1185;-77
2021/12/19 06:48:27;;;;;;;;;;;;;;;;;;2067417;28;820;-76
2021/12/19 06:49:28;;;;;;;;;;;;;;;;;;2066911;28;1629;-77
2021/12/19 06:50:29;;;;;;;;;;;;;;;;;;2065696;28;1791;-77
2021/12/19 06:51:30;;;;;;;;;;;;;;;;;;2062403;28;1559;-76
2021/12/19 06:52:32;;;;;;;;;;;;;;;;;;2067502;28;1166;-76
2021/12/19 06:53:32;;;;;;;;;;;;;;;;;;2067045;28;1554;-76
2021/12/19 06:54:34;;;;;;;;;;;;;;;;;;2067026;28;1576;-79
2021/12/19 06:55:34;;;;;;;;;;;;;;;;;;2059090;28;1918;-77
2021/12/19 06:56:36;;;;;;;;;;;;;;;;;;2059566;28;836;-77
2021/12/19 06:57:37;;;;;;;;;;;;;;;;;;2059115;28;1632;-76
2021/12/19 06:58:40;;;;;;;;;;;;;;;;;;2059365;28;832;-76
2021/12/19 06:59:41;;;;;;;;;;;;;;;;;;2050877;28;1497;-76
2021/12/19 07:00:42;;;;;;;;;;;;;;;;;;2051586;29;856;-76
2021/12/19 07:01:43;;;;;;;;;;;;;;;;;;2058058;28;1854;-77
2021/12/19 07:02:45;;;;;;;;;;;;;;;;;;2058856;28;1737;-77
2021/12/19 07:03:45;;;;;;;;;;;;;;;;;;2058741;28;1158;-76
2021/12/19 07:04:47;;;;;;;;;;;;;;;;;;2059036;28;1547;-76
2021/12/19 07:05:47;;;;;;;;;;;;;;;;;;2067101;28;1522;-78
2021/12/19 07:06:49;;;;;;;;;;;;;;;;;;2058853;28;2051;-77
2021/12/19 07:07:49;;;;;;;;;;;;;;;;;;2058854;28;1528;-76
2021/12/19 07:08:51;;;;;;;;;;;;;;;;;;2058997;28;1740;-76
2021/12/19 07:09:52;;;;;;;;;;;;;;;;;;2065547;28;1583;-76
2021/12/19 07:10:53;;;;;;;;;;;;;;;;;;2057809;28;1962;-77
2021/12/19 07:11:55;;;;;;;;;;;;;;;;;;2050860;29;1532;-76
2021/12/19 07:12:55;;;;;;;;;;;;;;;;;;2050780;29;1492;-76
2021/12/19 07:13:58;;;;;;;;;;;;;;;;;;2055605;28;1336;-77
2021/12/19 07:14:59;;;;;;;;;;;;;;;;;;2053098;28;1503;-78
2021/12/19 07:16:01;;;;;;;;;;;;;;;;;;2060745;28;1914;-78
2021/12/19 07:17:02;;;;;;;;;;;;;;;;;;2063422;28;1661;-78
2021/12/19 07:18:06;;;;;;;;;;;;;;;;;;2058620;28;1577;-77
2021/12/19 07:19:08;;;;;;;;;;;;;;;;;;2066816;28;1360;-76
2021/12/19 07:20:09;;;;;;;;;;;;;;;;;;2061932;28;1238;-77
2021/12/19 07:21:11;;;;;;;;;;;;;;;;;;2051466;28;1804;-76
2021/12/19 07:22:12;;;;;;;;;;;;;;;;;;2049364;29;1518;-76
2021/12/19 07:23:14;;;;;;;;;;;;;;;;;;2052287;28;1258;-77
2021/12/19 07:24:14;;;;;;;;;;;;;;;;;;2055504;28;1770;-76
2021/12/19 07:25:16;;;;;;;;;;;;;;;;;;2055335;28;1257;-76
2021/12/19 07:26:17;;;;;;;;;;;;;;;;;;2058335;28;2075;-77
2021/12/19 07:27:19;;;;;;;;;;;;;;;;;;2050407;28;1380;-77
2021/12/19 07:28:20;;;;;;;;;;;;;;;;;;2055719;28;1681;-76
2021/12/19 07:29:23;;;;;;;;;;;;;;;;;;2053523;28;1742;-76
2021/12/19 07:30:26;;;;;;;;;;;;;;;;;;2055575;28;1245;-76
2021/12/19 07:31:30;;;;;;;;;;;;;;;;;;2062490;28;1733;-77
2021/12/19 07:32:31;;;;;;;;;;;;;;;;;;2065249;28;1422;-77
2021/12/19 07:33:34;;;;;;;;;;;;;;;;;;2067411;28;1416;-76
2021/12/19 07:34:36;;;;;;;;;;;;;;;;;;2066664;28;1775;-76
2021/12/19 07:35:41;;;;;;;;;;;;;;;;;;2058564;28;1980;-77
2021/12/19 07:36:49;;;;;;;;;;;;;;;;;;2054228;28;2095;-76
2021/12/19 07:37:52;;;;;;;;;;;;;;;;;;2058638;28;1282;-77
2021/12/19 07:38:58;;;;;;;;;;;;;;;;;;2059198;28;1777;-76
2021/12/19 07:40:10;;;;;;;;;;;;;;;;;;2066636;28;1547;-77
2021/12/19 07:41:12;;;;;;;;;;;;;;;;;;2065291;28;1279;-76
2021/12/19 07:42:13;;;;;;;;;;;;;;;;;;2067037;28;1345;-76
2021/12/19 07:43:15;;;;;;;;;;;;;;;;;;2066665;28;1575;-77
2021/12/19 07:44:16;;;;;;;;;;;;;;;;;;2062377;28;1657;-77
2021/12/19 07:45:19;;;;;;;;;;;;;;;;;;2060772;28;1823;-77
2021/12/19 07:46:20;;;;;;;;;;;;;;;;;;2062175;28;1938;-77
2021/12/19 07:47:21;;;;;;;;;;;;;;;;;;2052724;28;1840;-76
2021/12/19 07:48:23;;;;;;;;;;;;;;;;;;2052408;28;1505;-77
2021/12/19 07:49:23;;;;;;;;;;;;;;;;;;2066140;28;1835;-76
2021/12/19 07:50:25;;;;;;;;;;;;;;;;;;2066412;28;1661;-76
2021/12/19 07:51:27;;;;;;;;;;;;;;;;;;2063640;28;1341;-78
2021/12/19 07:52:28;;;;;;;;;;;;;;;;;;2058908;28;887;-77
2021/12/19 07:53:29;;;;;;;;;;;;;;;;;;2066993;28;1407;-78
2021/12/19 07:54:30;;;;;;;;;;;;;;;;;;2058550;28;1515;-77
2021/12/19 07:55:32;;;;;;;;;;;;;;;;;;2049441;29;1526;-77
2021/12/19 07:56:33;;;;;;;;;;;;;;;;;;2049562;28;1969;-78
2021/12/19 07:57:36;;;;;;;;;;;;;;;;;;2050954;29;1222;-78
2021/12/19 07:58:37;;;;;;;;;;;;;;;;;;2065145;28;1434;-76
2021/12/19 07:59:38;;;;;;;;;;;;;;;;;;2058118;28;1644;-76
2021/12/19 08:00:41;;;;;;;;;;;;;;;;;;2066317;28;1568;-77
2021/12/19 08:01:43;;;;;;;;;;;;;;;;;;2066208;28;1097;-76
2021/12/19 08:02:45;;;;;;;;;;;;;;;;;;2058266;28;1541;-77
2021/12/19 08:03:47;;;;;;;;;;;;;;;;;;2050682;28;1758;-77
2021/12/19 08:04:47;;;;;;;;;;;;;;;;;;2058275;28;1832;-77